Time;durP1;ratioP1;P1;durP2;ratioP2;P2;SDS_P1;SDS_P2;PMS_P1;PMS_P2;Temp;Humidity;BMP_temperature;BMP_pressure;BME280_temperature;BME280_humidity;BME280_pressure;Samples;Min_cycle;Max_cycle;Signal;HPM_P1;HPM_P2
2022/08/04 00:00:14;;;;;;;2.33;0.93;;;20.20;99.90;;;;;;5090688;28;20834;-64
2022/08/04 00:02:55;;;;;;;2.77;1.17;;;20.10;99.90;;;;;;5090506;28;20438;-64
2022/08/04 00:05:35;;;;;;;3.63;1.40;;;20.00;99.90;;;;;;5090930;28;20413;-64
2022/08/04 00:08:38;;;;;;;3.30;1.70;;;19.90;99.90;;;;;;5094353;28;20402;-64
2022/08/04 00:11:07;;;;;;;4.73;1.87;;;19.90;99.90;;;;;;5094421;28;20792;-64
2022/08/04 00:13:38;;;;;;;3.30;1.40;;;19.90;99.90;;;;;;5094866;28;20878;-64
2022/08/04 00:16:06;;;;;;;2.33;1.20;;;19.90;99.90;;;;;;5094536;28;20411;-64
2022/08/04 00:18:48;;;;;;;2.60;1.37;;;19.90;99.90;;;;;;5095078;28;20493;-64
2022/08/04 00:21:17;;;;;;;1.70;0.60;;;19.80;99.90;;;;;;5094142;28;20497;-64
2022/08/04 00:23:44;;;;;;;7.30;1.40;;;19.80;99.90;;;;;;5094476;28;20418;-64
2022/08/04 00:26:10;;;;;;;6.20;1.57;;;19.80;99.90;;;;;;5094586;28;20414;-64
2022/08/04 00:28:41;;;;;;;2.13;1.13;;;19.70;99.90;;;;;;5094636;28;20414;-64
2022/08/04 00:31:09;;;;;;;2.37;1.13;;;19.70;99.90;;;;;;5093704;28;20427;-64
2022/08/04 00:33:36;;;;;;;3.10;1.00;;;19.60;99.90;;;;;;5094852;28;20423;-63
2022/08/04 00:36:02;;;;;;;3.63;1.30;;;19.60;99.90;;;;;;5076175;28;20758;-64
2022/08/04 00:38:29;;;;;;;2.57;1.20;;;19.50;99.90;;;;;;5094720;28;20414;-64
2022/08/04 00:41:16;;;;;;;5.00;1.30;;;19.50;99.90;;;;;;5094166;28;20490;-64
2022/08/04 00:43:59;;;;;;;3.03;1.17;;;19.40;99.90;;;;;;5094362;28;20418;-64
2022/08/04 00:47:04;;;;;;;6.60;1.20;;;19.40;99.90;;;;;;5094386;28;20455;-63
2022/08/04 00:49:45;;;;;;;3.87;1.60;;;19.40;99.90;;;;;;5094635;28;20414;-64
2022/08/04 00:52:23;;;;;;;2.50;1.40;;;19.40;99.90;;;;;;5093767;28;20460;-64
2022/08/04 00:55:00;;;;;;;5.43;1.27;;;19.40;99.90;;;;;;5094382;28;20567;-64
2022/08/04 00:57:48;;;;;;;3.30;1.43;;;19.30;99.90;;;;;;5084581;28;20448;-64
2022/08/04 01:00:15;;;;;;;3.20;1.27;;;19.40;99.90;;;;;;5093760;28;20611;-63
2022/08/04 01:03:06;;;;;;;2.07;1.00;;;19.30;99.90;;;;;;5093301;28;20421;-64
2022/08/04 01:05:44;;;;;;;10.33;1.30;;;19.20;99.90;;;;;;5094045;28;20422;-64
2022/08/04 01:08:31;;;;;;;2.37;1.10;;;19.20;99.90;;;;;;5093647;28;20419;-64
2022/08/04 01:11:21;;;;;;;2.80;0.93;;;19.20;99.90;;;;;;5093764;28;20769;-64
2022/08/04 01:14:28;;;;;;;3.37;1.60;;;19.20;99.90;;;;;;5093683;28;20438;-64
2022/08/04 01:17:04;;;;;;;2.00;1.00;;;19.10;99.90;;;;;;5093316;28;20529;-64
2022/08/04 01:19:41;;;;;;;2.20;1.20;;;19.20;99.90;;;;;;5093877;28;20421;-64
2022/08/04 01:22:21;;;;;;;3.37;1.23;;;19.20;99.90;;;;;;5093095;28;20999;-64
2022/08/04 01:24:52;;;;;;;4.27;1.33;;;19.20;99.90;;;;;;5093220;28;20434;-64
2022/08/04 01:27:42;;;;;;;2.80;1.67;;;19.10;99.90;;;;;;5093769;28;20428;-64
2022/08/04 01:30:08;;;;;;;3.57;1.10;;;19.10;99.90;;;;;;5093676;28;20555;-63
2022/08/04 01:32:36;;;;;;;5.63;1.50;;;19.10;99.90;;;;;;5092564;28;20957;-64
2022/08/04 01:35:37;;;;;;;3.97;1.60;;;19.00;99.90;;;;;;5093340;28;20176;-64
2022/08/04 01:38:23;;;;;;;2.20;1.07;;;19.00;99.90;;;;;;5090485;28;20786;-64
2022/08/04 01:40:53;;;;;;;1.80;1.07;;;19.00;99.90;;;;;;5093075;28;20545;-64
2022/08/04 01:43:20;;;;;;;4.43;2.03;;;18.90;99.90;;;;;;5092619;28;20422;-64
2022/08/04 01:45:51;;;;;;;3.40;1.27;;;18.90;99.90;;;;;;5092723;28;20463;-64
2022/08/04 01:48:26;;;;;;;2.37;1.40;;;18.80;99.90;;;;;;5093385;28;20426;-63
2022/08/04 01:50:54;;;;;;;3.27;1.07;;;18.80;99.90;;;;;;5092769;28;20428;-64
2022/08/04 01:53:22;;;;;;;3.17;1.80;;;18.80;99.90;;;;;;5092897;28;20426;-64
2022/08/04 01:56:16;;;;;;;2.90;1.33;;;18.80;99.90;;;;;;5092633;28;20456;-64
2022/08/04 01:58:42;;;;;;;3.50;1.53;;;18.80;99.90;;;;;;5091659;28;20426;-63
2022/08/04 02:01:10;;;;;;;3.77;1.47;;;18.80;99.90;;;;;;5091987;28;20451;-63
2022/08/04 02:03:39;;;;;;;4.13;1.50;;;18.70;99.90;;;;;;5093043;28;20173;-63
2022/08/04 02:06:35;;;;;;;2.90;1.50;;;18.70;99.90;;;;;;5092613;28;20406;-63
2022/08/04 02:09:39;;;;;;;2.33;1.27;;;18.60;99.90;;;;;;5074782;28;20522;-64
2022/08/04 02:12:17;;;;;;;6.70;1.57;;;18.60;99.90;;;;;;5092365;28;20441;-63
2022/08/04 02:15:13;;;;;;;3.47;1.40;;;18.50;99.90;;;;;;5092608;28;21188;-63
2022/08/04 02:17:42;;;;;;;2.23;1.00;;;18.50;99.90;;;;;;5092712;28;21158;-63
2022/08/04 02:20:08;;;;;;;3.10;1.50;;;18.50;99.90;;;;;;5092962;28;20424;-63
2022/08/04 02:22:46;;;;;;;2.60;1.13;;;18.50;99.90;;;;;;5091066;28;20419;-63
2022/08/04 02:25:16;;;;;;;3.20;1.57;;;18.40;99.90;;;;;;5092959;28;20195;-63
2022/08/04 02:27:53;;;;;;;2.53;1.10;;;18.40;99.90;;;;;;5092486;28;20501;-64
2022/08/04 02:30:19;;;;;;;3.60;1.73;;;18.40;99.90;;;;;;5091991;28;20421;-63
2022/08/04 02:32:47;;;;;;;4.27;1.47;;;18.40;99.90;;;;;;5092106;28;20414;-63
2022/08/04 02:35:20;;;;;;;12.03;1.80;;;18.30;99.90;;;;;;5092461;28;20414;-63
2022/08/04 02:37:51;;;;;;;1.60;0.80;;;18.30;99.90;;;;;;5092158;28;20969;-64
2022/08/04 02:40:20;;;;;;;2.50;1.30;;;18.40;99.90;;;;;;5085344;28;20459;-64
2022/08/04 02:42:46;;;;;;;3.33;1.10;;;18.40;99.90;;;;;;5084599;28;20514;-63
2022/08/04 02:45:13;;;;;;;3.20;1.13;;;18.40;99.90;;;;;;5085099;28;20486;-64
2022/08/04 02:47:41;;;;;;;2.60;1.10;;;18.50;99.90;;;;;;5091792;28;20883;-63
2022/08/04 02:50:10;;;;;;;1.90;1.07;;;18.40;99.90;;;;;;5092237;28;20960;-64
2022/08/04 02:52:38;;;;;;;1.87;0.93;;;18.40;99.90;;;;;;5091576;28;20419;-64
2022/08/04 02:55:10;;;;;;;3.00;1.43;;;18.30;99.90;;;;;;5090802;28;20426;-64
2022/08/04 02:57:38;;;;;;;1.90;1.00;;;18.30;99.90;;;;;;5084113;28;20406;-64
2022/08/04 03:00:11;;;;;;;2.50;1.17;;;18.20;99.90;;;;;;5091229;28;20509;-63
2022/08/04 03:02:58;;;;;;;2.40;1.40;;;18.20;99.90;;;;;;5091420;28;20415;-63
2022/08/04 03:05:49;;;;;;;2.80;1.47;;;18.10;99.90;;;;;;5091833;28;20449;-63
2022/08/04 03:08:49;;;;;;;2.20;1.20;;;18.10;99.90;;;;;;5088454;28;20426;-63
2022/08/04 03:11:36;;;;;;;2.53;1.27;;;18.00;99.90;;;;;;5091170;28;20437;-63
2022/08/04 03:14:27;;;;;;;1.93;1.07;;;18.00;99.90;;;;;;5091501;28;20495;-63
2022/08/04 03:17:06;;;;;;;6.33;1.90;;;18.00;99.90;;;;;;5091414;28;20414;-63
2022/08/04 03:20:07;;;;;;;2.67;1.20;;;17.90;99.90;;;;;;5091623;28;20406;-63
2022/08/04 03:22:57;;;;;;;4.43;1.00;;;17.90;99.90;;;;;;5090220;28;20450;-63
2022/08/04 03:26:06;;;;;;;2.27;1.17;;;17.90;99.90;;;;;;5091556;28;20403;-64
2022/08/04 03:28:38;;;;;;;5.47;1.50;;;17.90;99.90;;;;;;5091405;28;20399;-64
2022/08/04 03:31:17;;;;;;;3.90;1.40;;;17.80;99.90;;;;;;5090391;28;20420;-63
2022/08/04 03:34:02;;;;;;;2.63;1.27;;;17.80;99.90;;;;;;5091730;28;20501;-64
2022/08/04 03:36:46;;;;;;;3.07;1.30;;;17.80;99.90;;;;;;5091389;28;20897;-63
2022/08/04 03:39:56;;;;;;;1.83;0.90;;;17.80;99.90;;;;;;5087306;28;20410;-64
2022/08/04 03:42:43;;;;;;;4.70;1.50;;;17.80;99.90;;;;;;5045180;28;20476;-63
2022/08/04 03:45:20;;;;;;;2.97;1.23;;;17.70;99.90;;;;;;5091207;28;20414;-63
2022/08/04 03:48:12;;;;;;;2.67;1.20;;;17.70;99.90;;;;;;5091468;28;20410;-64
2022/08/04 03:53:07;;;;;;;2.37;1.20;;;17.70;99.90;;;;;;5090615;28;20429;-64
2022/08/04 03:53:47;;;;;;;8.93;1.73;;;17.80;99.90;;;;;;5090813;28;20810;-63
2022/08/04 03:56:30;;;;;;;6.10;1.10;;;17.80;99.90;;;;;;5081247;28;20427;-63
2022/08/04 03:59:16;;;;;;;2.70;1.37;;;17.80;99.90;;;;;;5090964;28;20738;-63
2022/08/04 04:01:50;;;;;;;3.13;1.23;;;17.80;99.90;;;;;;5090020;28;20454;-63
2022/08/04 04:04:19;;;;;;;3.23;1.17;;;17.80;99.90;;;;;;5091053;28;20410;-63
2022/08/04 04:07:22;;;;;;;2.37;1.10;;;17.70;99.90;;;;;;5090928;28;20410;-63
2022/08/04 04:10:02;;;;;;;2.70;1.37;;;17.70;99.90;;;;;;5090967;28;20483;-63
2022/08/04 04:12:41;;;;;;;2.33;1.00;;;17.70;99.90;;;;;;5090360;28;20463;-63
2022/08/04 04:15:22;;;;;;;2.80;1.30;;;17.80;99.90;;;;;;5090811;28;20413;-64
2022/08/04 04:17:48;;;;;;;1.90;1.00;;;17.70;99.90;;;;;;5090868;28;20493;-64
2022/08/04 04:20:44;;;;;;;2.67;1.17;;;17.70;99.90;;;;;;5090756;28;20493;-63
2022/08/04 04:23:37;;;;;;;2.60;1.37;;;17.70;99.90;;;;;;5088639;28;20189;-64
2022/08/04 04:26:05;;;;;;;2.27;1.37;;;17.70;99.90;;;;;;5090670;28;20403;-64
2022/08/04 04:28:34;;;;;;;7.07;1.90;;;17.70;99.90;;;;;;5090597;28;20406;-64
2022/08/04 04:31:08;;;;;;;2.60;1.40;;;17.80;99.90;;;;;;5089764;28;20433;-64
2022/08/04 04:33:55;;;;;;;2.70;1.53;;;17.80;99.90;;;;;;5089674;28;20472;-64
2022/08/04 04:36:24;;;;;;;2.60;1.00;;;17.80;99.90;;;;;;5083726;28;20453;-63
2022/08/04 04:39:23;;;;;;;3.70;1.40;;;17.80;99.90;;;;;;5090635;28;20421;-63
2022/08/04 04:41:58;;;;;;;2.73;1.37;;;17.80;99.90;;;;;;5090091;28;20470;-63
2022/08/04 04:44:50;;;;;;;2.17;1.03;;;17.80;99.90;;;;;;5076929;28;20826;-64
2022/08/04 04:47:41;;;;;;;1.83;1.03;;;17.90;99.90;;;;;;5058582;28;20429;-63
2022/08/04 04:50:50;;;;;;;5.30;1.47;;;18.00;99.90;;;;;;5083322;28;20445;-63
2022/08/04 04:53:21;;;;;;;3.33;1.40;;;18.10;99.90;;;;;;5075634;28;20509;-64
2022/08/04 04:55:58;;;;;;;20.27;1.60;;;18.10;99.90;;;;;;5073474;28;20442;-63
2022/08/04 04:58:25;;;;;;;3.47;1.70;;;18.10;99.90;;;;;;5093009;28;20506;-64
2022/08/04 05:00:54;;;;;;;2.83;1.40;;;18.10;99.90;;;;;;5093457;28;20461;-63
2022/08/04 05:03:41;;;;;;;2.40;1.07;;;18.10;99.90;;;;;;5093543;28;20586;-63
2022/08/04 05:06:16;;;;;;;3.30;1.60;;;18.20;99.90;;;;;;5093788;28;20429;-63
2022/08/04 05:08:45;;;;;;;1.80;1.00;;;18.20;99.90;;;;;;5094216;28;21109;-63
2022/08/04 05:11:28;;;;;;;3.57;1.60;;;18.30;99.90;;;;;;5093108;28;20426;-64
2022/08/04 05:14:00;;;;;;;2.90;1.33;;;18.40;99.90;;;;;;5094219;28;20425;-64
2022/08/04 05:16:40;;;;;;;2.73;1.10;;;18.40;99.90;;;;;;5093432;28;20497;-64
2022/08/04 05:19:17;;;;;;;6.20;1.33;;;18.50;99.90;;;;;;5093731;28;20410;-64
2022/08/04 05:21:59;;;;;;;3.20;1.63;;;18.60;99.90;;;;;;5080009;28;21120;-64
2022/08/04 05:24:27;;;;;;;3.50;1.40;;;18.60;99.90;;;;;;5074574;28;20426;-64
2022/08/04 05:26:58;;;;;;;3.83;1.37;;;18.70;99.90;;;;;;5093434;28;20437;-63
2022/08/04 05:29:32;;;;;;;4.43;1.80;;;18.80;99.90;;;;;;5093914;28;20427;-63
2022/08/04 05:32:00;;;;;;;2.90;1.40;;;18.80;99.90;;;;;;5092762;28;20419;-64
2022/08/04 05:34:29;;;;;;;2.87;1.50;;;18.90;99.90;;;;;;5093297;28;20480;-64
2022/08/04 05:37:00;;;;;;;2.73;1.57;;;19.00;99.90;;;;;;5093341;28;20426;-64
2022/08/04 05:39:30;;;;;;;2.20;1.20;;;19.10;99.90;;;;;;5093448;28;20496;-64
2022/08/04 05:41:57;;;;;;;3.73;2.07;;;19.10;99.90;;;;;;5092760;28;20973;-64
2022/08/04 05:44:27;;;;;;;2.20;1.50;;;19.20;99.90;;;;;;5079773;28;20418;-64
2022/08/04 05:46:56;;;;;;;2.73;1.67;;;19.30;99.90;;;;;;5092895;28;20445;-64
2022/08/04 05:49:27;;;;;;;3.10;1.67;;;19.30;99.90;;;;;;5092443;28;20414;-63
2022/08/04 05:51:58;;;;;;;5.17;1.93;;;19.40;99.90;;;;;;5091097;28;21178;-64
2022/08/04 05:54:24;;;;;;;3.10;1.77;;;19.50;99.90;;;;;;5091121;28;20460;-64
2022/08/04 05:56:52;;;;;;;2.77;1.60;;;19.60;99.90;;;;;;5087296;28;20427;-64
2022/08/04 05:59:19;;;;;;;5.13;2.00;;;19.80;99.90;;;;;;5091664;28;20422;-63
2022/08/04 06:01:45;;;;;;;3.73;1.67;;;19.80;99.90;;;;;;5089973;28;20494;-63
2022/08/04 06:04:13;;;;;;;4.60;1.80;;;20.00;99.90;;;;;;5090172;28;20429;-64
2022/08/04 06:06:41;;;;;;;3.43;1.60;;;20.20;99.90;;;;;;5092721;28;20905;-64
2022/08/04 06:09:06;;;;;;;3.40;1.77;;;20.50;99.90;;;;;;5092654;28;20415;-64
2022/08/04 06:11:34;;;;;;;4.40;1.80;;;20.80;99.90;;;;;;5092036;28;20418;-64
2022/08/04 06:14:03;;;;;;;2.97;1.37;;;21.00;99.90;;;;;;5092847;28;20204;-64
2022/08/04 06:16:37;;;;;;;3.73;1.33;;;21.20;99.90;;;;;;5078376;28;20430;-67
2022/08/04 06:19:08;;;;;;;3.07;1.40;;;21.30;99.90;;;;;;5074280;28;20415;-67
2022/08/04 06:21:40;;;;;;;4.00;1.73;;;21.40;99.90;;;;;;5083773;28;20502;-67
2022/08/04 06:24:10;;;;;;;5.40;1.73;;;21.60;99.70;;;;;;5091034;28;20794;-67
2022/08/04 06:26:36;;;;;;;2.93;1.40;;;21.70;99.30;;;;;;5091819;28;20882;-67
2022/08/04 06:29:03;;;;;;;3.23;1.87;;;21.90;97.50;;;;;;5091460;28;20426;-67
2022/08/04 06:31:42;;;;;;;2.50;1.33;;;22.10;97.10;;;;;;5091253;28;21123;-67
2022/08/04 06:34:11;;;;;;;3.00;1.37;;;22.20;96.10;;;;;;5090538;28;20441;-67
2022/08/04 06:36:39;;;;;;;2.90;1.43;;;22.30;95.60;;;;;;5086961;28;20423;-66
2022/08/04 06:39:07;;;;;;;5.50;2.23;;;22.50;95.40;;;;;;5084366;28;21039;-67
2022/08/04 06:41:33;;;;;;;3.47;1.77;;;22.60;95.10;;;;;;5080068;28;20556;-67
2022/08/04 06:44:02;;;;;;;3.07;1.67;;;22.60;95.50;;;;;;5091931;28;20422;-67
2022/08/04 06:46:29;;;;;;;4.53;1.57;;;22.70;95.10;;;;;;5082804;28;20427;-67
2022/08/04 06:48:55;;;;;;;3.60;1.80;;;22.80;94.90;;;;;;5087777;28;20418;-67
2022/08/04 06:51:21;;;;;;;7.70;1.80;;;22.90;95.00;;;;;;5091257;28;20418;-67
2022/08/04 06:53:47;;;;;;;2.70;1.43;;;23.00;95.80;;;;;;5091116;28;20422;-67
2022/08/04 06:56:19;;;;;;;2.77;1.50;;;23.20;94.10;;;;;;5081353;28;20511;-67
2022/08/04 06:58:45;;;;;;;2.87;1.50;;;23.40;93.80;;;;;;5090927;28;20184;-67
2022/08/04 07:01:18;;;;;;;2.20;1.27;;;23.50;93.80;;;;;;5090952;28;20576;-67
2022/08/04 07:03:44;;;;;;;3.27;1.83;;;23.70;93.00;;;;;;5091282;28;20509;-67
2022/08/04 07:06:10;;;;;;;5.17;2.30;;;23.90;93.40;;;;;;5091363;28;20544;-67
2022/08/04 07:08:36;;;;;;;4.83;1.50;;;24.20;92.60;;;;;;5072819;28;20433;-67
2022/08/04 07:11:04;;;;;;;2.70;1.40;;;24.60;91.60;;;;;;5090489;28;20449;-67
2022/08/04 07:13:31;;;;;;;3.23;1.87;;;24.80;92.00;;;;;;5083698;28;20569;-67
2022/08/04 07:15:58;;;;;;;4.00;1.30;;;25.10;91.70;;;;;;5090859;28;20410;-67
2022/08/04 07:18:24;;;;;;;3.10;1.40;;;25.40;90.40;;;;;;5091040;28;20723;-67
2022/08/04 07:20:50;;;;;;;3.07;1.60;;;25.70;90.60;;;;;;5090424;28;20460;-67
2022/08/04 07:23:21;;;;;;;2.93;1.60;;;25.90;89.30;;;;;;5089925;28;20180;-67
2022/08/04 07:25:57;;;;;;;4.27;1.67;;;26.20;86.90;;;;;;5090336;28;20418;-64
2022/08/04 07:28:27;;;;;;;4.00;1.70;;;26.60;86.90;;;;;;5078943;28;20413;-64
2022/08/04 07:30:55;;;;;;;2.90;1.23;;;27.00;84.90;;;;;;5089827;28;20418;-64
2022/08/04 07:33:23;;;;;;;3.00;1.60;;;27.30;83.00;;;;;;5090444;28;20761;-64
2022/08/04 07:35:51;;;;;;;4.90;1.83;;;27.60;81.90;;;;;;5091066;28;20456;-64
2022/08/04 07:38:16;;;;;;;2.93;1.30;;;28.10;80.40;;;;;;5090368;28;20422;-65
2022/08/04 07:40:43;;;;;;;2.55;1.20;;;28.80;80.80;;;;;;5090499;28;20214;-65
2022/08/04 07:43:09;;;;;;;2.88;1.40;;;29.70;77.30;;;;;;5090248;28;20184;-65
2022/08/04 07:45:35;;;;;;;2.53;1.20;;;30.60;74.70;;;;;;5087109;28;20535;-65
2022/08/04 07:48:06;;;;;;;2.95;1.30;;;31.80;70.40;;;;;;5078758;28;20179;-66
2022/08/04 07:50:32;;;;;;;2.40;1.10;;;32.60;67.30;;;;;;5087557;28;20183;-65
2022/08/04 07:52:59;;;;;;;3.92;1.30;;;33.20;67.20;;;;;;5090517;28;20180;-66
2022/08/04 07:55:26;;;;;;;9.95;1.80;;;34.00;65.60;;;;;;5086652;28;20223;-66
2022/08/04 07:57:51;;;;;;;2.10;1.23;;;34.40;62.30;;;;;;5084620;28;20220;-66
2022/08/04 08:00:17;;;;;;;3.03;1.55;;;34.40;62.80;;;;;;5089541;28;20188;-66
2022/08/04 08:02:48;;;;;;;5.65;1.38;;;34.80;60.70;;;;;;5090293;28;20258;-66
2022/08/04 08:05:17;;;;;;;2.50;1.45;;;34.70;61.50;;;;;;5090369;28;20252;-66
2022/08/04 08:07:49;;;;;;;2.92;1.70;;;35.40;61.10;;;;;;5090148;28;20226;-66
2022/08/04 08:10:15;;;;;;;2.80;1.50;;;35.70;58.60;;;;;;5087662;28;20175;-66
2022/08/04 08:12:42;;;;;;;3.00;1.33;;;36.50;55.90;;;;;;5088134;28;20913;-66
2022/08/04 08:15:09;;;;;;;2.97;1.48;;;37.00;54.90;;;;;;5102258;22;20220;-66
2022/08/04 08:17:36;;;;;;;2.85;1.38;;;36.90;55.40;;;;;;5088702;28;20176;-66
2022/08/04 08:20:02;;;;;;;7.47;1.50;;;36.50;57.10;;;;;;5088336;28;20535;-66
2022/08/04 08:22:29;;;;;;;2.47;1.25;;;36.40;56.10;;;;;;5087685;28;20504;-66
2022/08/04 08:24:55;;;;;;;2.35;1.48;;;37.40;51.10;;;;;;5070764;28;20195;-66
2022/08/04 08:27:21;;;;;;;3.40;1.73;;;36.60;53.20;;;;;;5082702;28;20172;-66
2022/08/04 08:29:47;;;;;;;3.78;1.40;;;36.50;53.10;;;;;;5092553;28;20172;-66
2022/08/04 08:32:13;;;;;;;2.75;1.67;;;36.50;53.50;;;;;;5064969;28;20181;-66
2022/08/04 08:34:40;;;;;;;3.22;1.63;;;37.00;52.20;;;;;;5078726;28;20644;-66
2022/08/04 08:37:25;;;;;;;2.80;1.90;;;37.30;51.30;;;;;;5092480;28;20244;-66
2022/08/04 08:40:16;;;;;;;2.55;1.45;;;36.80;53.40;;;;;;5064965;28;20177;-66
2022/08/04 08:43:18;;;;;;;5.22;1.83;;;36.30;53.90;;;;;;5046647;28;20660;-66
2022/08/04 08:46:14;;;;;;;3.72;1.85;;;36.30;53.60;;;;;;5090089;28;20238;-66
2022/08/04 08:49:01;;;;;;;3.38;1.70;;;36.50;53.20;;;;;;5076069;28;20187;-66
2022/08/04 08:51:46;;;;;;;2.85;1.40;;;36.20;53.70;;;;;;5083778;28;20184;-66
2022/08/04 08:54:23;;;;;;;4.47;1.77;;;36.40;53.40;;;;;;5059578;28;20640;-66
2022/08/04 08:57:07;;;;;;;2.67;1.52;;;36.60;53.70;;;;;;5074344;28;20686;-67
2022/08/04 09:00:10;;;;;;;4.25;1.80;;;36.90;51.40;;;;;;5081893;28;20645;-67
2022/08/04 09:03:15;;;;;;;2.03;1.00;;;36.50;53.70;;;;;;5069544;28;20293;-67
2022/08/04 09:05:59;;;;;;;3.00;1.67;;;36.60;53.20;;;;;;5061691;28;20640;-66
2022/08/04 09:08:43;;;;;;;2.67;1.50;;;36.60;53.60;;;;;;5072746;28;20208;-67
2022/08/04 09:11:13;;;;;;;3.63;1.52;;;36.50;52.90;;;;;;5069681;28;20208;-67
2022/08/04 09:13:42;;;;;;;2.40;1.40;;;36.30;52.80;;;;;;5068562;28;20172;-67
2022/08/04 09:16:17;;;;;;;3.50;1.75;;;35.90;53.10;;;;;;5086401;28;20628;-67
2022/08/04 09:18:55;;;;;;;5.50;1.60;;;36.00;52.90;;;;;;5070721;28;20578;-67
2022/08/04 09:21:44;;;;;;;2.78;1.33;;;35.90;53.70;;;;;;5075714;28;20195;-67
2022/08/04 09:24:33;;;;;;;3.28;1.75;;;36.00;54.70;;;;;;5054298;28;20545;-67
2022/08/04 09:27:14;;;;;;;3.05;1.48;;;36.20;53.80;;;;;;5082174;28;20263;-67
2022/08/04 09:29:47;;;;;;;3.85;1.77;;;36.30;53.30;;;;;;5061733;28;20172;-67
2022/08/04 09:32:31;;;;;;;25.00;1.75;;;35.80;54.00;;;;;;5084112;28;20189;-68
2022/08/04 09:35:20;;;;;;;2.65;1.40;;;35.80;53.50;;;;;;5061298;28;20184;-67
2022/08/04 09:38:13;;;;;;;2.38;1.42;;;35.60;54.80;;;;;;5077909;28;20256;-67
2022/08/04 09:40:47;;;;;;;2.53;1.33;;;36.10;52.60;;;;;;5082599;28;20219;-68
2022/08/04 09:43:48;;;;;;;2.30;1.50;;;35.80;53.60;;;;;;5080870;28;20180;-67
2022/08/04 09:46:29;;;;;;;2.88;1.25;;;35.50;53.00;;;;;;5068108;28;20184;-67
2022/08/04 09:49:00;;;;;;;3.45;1.73;;;35.40;53.10;;;;;;5090189;28;20175;-67
2022/08/04 09:51:52;;;;;;;3.08;1.20;;;35.50;53.50;;;;;;5091043;28;20175;-68
2022/08/04 09:54:35;;;;;;;2.80;1.60;;;35.80;52.80;;;;;;5068043;28;20172;-68
2022/08/04 09:57:35;;;;;;;2.75;1.58;;;36.00;51.10;;;;;;5077392;28;20642;-68
2022/08/04 10:00:03;;;;;;;2.85;1.70;;;36.00;51.50;;;;;;5039780;28;20203;-68
2022/08/04 10:02:37;;;;;;;3.20;1.40;;;36.00;51.20;;;;;;5088361;28;20716;-67
2022/08/04 10:05:07;;;;;;;2.28;1.38;;;35.80;51.10;;;;;;5087533;28;20176;-67
2022/08/04 10:07:36;;;;;;;3.17;1.70;;;35.50;50.20;;;;;;5091397;28;20164;-68
2022/08/04 10:10:13;;;;;;;3.97;1.60;;;35.50;49.50;;;;;;5090676;28;20221;-67
2022/08/04 10:13:10;;;;;;;2.42;1.10;;;35.50;51.00;;;;;;5084521;28;20180;-68
2022/08/04 10:16:00;;;;;;;3.47;1.30;;;35.60;49.40;;;;;;5035309;28;20212;-67
2022/08/04 10:18:53;;;;;;;2.58;1.35;;;35.50;49.00;;;;;;5072710;28;20668;-67
2022/08/04 10:21:34;;;;;;;3.08;1.55;;;35.30;50.80;;;;;;5082678;28;20216;-67
2022/08/04 10:24:10;;;;;;;2.67;1.45;;;34.90;52.10;;;;;;5084550;28;20179;-67
2022/08/04 10:27:05;;;;;;;2.75;1.42;;;34.60;49.20;;;;;;5090088;28;20195;-67
2022/08/04 10:29:41;;;;;;;3.17;1.42;;;34.50;50.70;;;;;;5044836;28;20195;-67
2022/08/04 10:32:33;;;;;;;2.20;1.25;;;34.40;53.60;;;;;;5070997;28;20219;-67
2022/08/04 10:35:08;;;;;;;2.63;1.48;;;34.30;53.50;;;;;;5067558;28;20207;-66
2022/08/04 10:38:02;;;;;;;3.67;1.00;;;34.40;51.40;;;;;;5090349;28;20185;-67
2022/08/04 10:40:46;;;;;;;3.83;1.50;;;34.20;52.20;;;;;;5090348;28;20663;-67
2022/08/04 10:43:40;;;;;;;2.63;1.23;;;34.20;51.50;;;;;;5059890;28;20180;-67
2022/08/04 10:46:30;;;;;;;3.05;1.58;;;34.20;50.00;;;;;;5064001;28;20260;-67
2022/08/04 10:49:05;;;;;;;2.60;1.23;;;34.30;50.30;;;;;;5088671;28;20172;-67
2022/08/04 10:51:45;;;;;;;2.10;0.88;;;34.30;49.70;;;;;;5089785;28;20262;-67
2022/08/04 10:54:14;;;;;;;2.03;1.05;;;34.20;49.00;;;;;;5064248;28;20550;-67
2022/08/04 10:56:52;;;;;;;3.15;1.77;;;34.00;49.30;;;;;;5086456;28;20164;-67
2022/08/04 10:59:41;;;;;;;2.88;1.20;;;34.10;52.00;;;;;;5089954;28;20171;-67
2022/08/04 11:02:17;;;;;;;2.85;1.30;;;34.20;50.80;;;;;;5089218;28;20207;-67
2022/08/04 11:05:13;;;;;;;2.58;1.00;;;34.20;50.20;;;;;;5076080;28;20179;-68
2022/08/04 11:07:42;;;;;;;2.20;1.27;;;34.40;50.50;;;;;;5065047;28;20259;-67
2022/08/04 11:10:09;;;;;;;2.28;1.13;;;34.50;49.30;;;;;;5060630;28;20172;-66
2022/08/04 11:12:36;;;;;;;3.03;1.02;;;34.50;51.40;;;;;;5084081;28;20176;-66
2022/08/04 11:15:05;;;;;;;3.05;1.30;;;34.50;49.00;;;;;;5078072;28;20950;-66
2022/08/04 11:17:36;;;;;;;3.13;1.60;;;34.60;49.80;;;;;;5074093;28;20628;-66
2022/08/04 11:20:14;;;;;;;2.85;1.73;;;34.50;50.00;;;;;;5092988;28;20188;-66
2022/08/04 11:22:54;;;;;;;2.47;1.45;;;34.50;49.00;;;;;;5091866;28;20206;-67
2022/08/04 11:25:27;;;;;;;9.85;1.67;;;34.70;53.10;;;;;;5056162;28;20181;-66
2022/08/04 11:28:10;;;;;;;3.50;1.63;;;34.90;48.50;;;;;;5074341;28;20196;-66
2022/08/04 11:30:40;;;;;;;2.95;1.33;;;34.80;51.10;;;;;;5074104;28;20192;-66
2022/08/04 11:33:34;;;;;;;2.30;1.10;;;34.80;47.70;;;;;;5067256;28;20177;-67
2022/08/04 11:36:08;;;;;;;3.17;1.20;;;34.90;48.90;;;;;;5067156;28;20212;-66
2022/08/04 11:38:49;;;;;;;2.75;1.45;;;35.10;49.10;;;;;;5061189;28;20899;-67
2022/08/04 11:41:22;;;;;;;2.17;1.17;;;35.10;49.60;;;;;;5057704;28;20188;-67
2022/08/04 11:43:55;;;;;;;3.40;1.77;;;35.10;50.50;;;;;;5072751;28;20684;-66
2022/08/04 11:46:30;;;;;;;3.15;1.77;;;35.00;48.30;;;;;;5090750;28;20675;-67
2022/08/04 11:49:22;;;;;;;2.53;1.50;;;35.00;48.10;;;;;;5089510;28;20203;-66
2022/08/04 11:51:50;;;;;;;2.22;1.45;;;35.00;50.80;;;;;;5089894;28;20191;-67
2022/08/04 11:54:17;;;;;;;2.97;1.20;;;35.20;48.50;;;;;;5090875;28;20210;-66
2022/08/04 11:56:43;;;;;;;6.10;1.80;;;35.30;48.00;;;;;;5077127;28;20217;-67
2022/08/04 11:59:09;;;;;;;2.05;0.98;;;35.50;47.30;;;;;;5065699;28;20184;-67
2022/08/04 12:01:34;;;;;;;5.78;1.85;;;35.60;48.70;;;;;;5088456;28;20218;-67
2022/08/04 12:04:31;;;;;;;4.15;1.50;;;35.60;47.20;;;;;;5081621;28;20259;-67
2022/08/04 12:07:17;;;;;;;3.05;1.30;;;35.60;48.60;;;;;;5094800;28;20241;-67
2022/08/04 12:10:02;;;;;;;2.22;1.13;;;35.80;47.40;;;;;;5094419;28;20186;-67
2022/08/04 12:12:36;;;;;;;2.88;1.80;;;35.30;47.20;;;;;;5094061;28;20262;-66
2022/08/04 12:15:17;;;;;;;2.88;1.67;;;35.30;47.60;;;;;;5094514;28;20545;-67
2022/08/04 12:17:46;;;;;;;3.00;1.30;;;35.40;49.00;;;;;;5094478;28;20779;-67
2022/08/04 12:20:17;;;;;;;6.43;1.48;;;35.50;48.80;;;;;;5094325;28;20527;-67
2022/08/04 12:22:46;;;;;;;3.80;1.60;;;35.50;48.20;;;;;;5094160;28;20238;-67
2022/08/04 12:25:23;;;;;;;2.60;1.40;;;35.60;46.30;;;;;;5094184;28;20179;-67
2022/08/04 12:28:12;;;;;;;3.65;1.38;;;35.60;46.30;;;;;;5093957;28;20190;-66
2022/08/04 12:30:44;;;;;;;4.43;1.40;;;35.70;47.60;;;;;;5093224;28;20195;-67
2022/08/04 12:33:18;;;;;;;4.57;1.83;;;36.00;48.90;;;;;;5094385;28;20777;-67
2022/08/04 12:35:52;;;;;;;2.53;1.60;;;36.10;47.90;;;;;;5093706;28;20171;-67
2022/08/04 12:38:21;;;;;;;2.75;1.30;;;36.20;47.00;;;;;;5076426;28;20594;-67
2022/08/04 12:40:50;;;;;;;2.67;1.38;;;36.30;47.50;;;;;;5074505;28;20260;-67
2022/08/04 12:43:21;;;;;;;2.95;1.60;;;36.10;46.90;;;;;;5063631;28;20180;-67
2022/08/04 12:45:53;;;;;;;7.35;2.05;;;36.20;45.60;;;;;;5064919;28;20176;-67
2022/08/04 12:48:21;;;;;;;19.45;1.70;;;36.20;45.90;;;;;;5062783;28;20181;-67
2022/08/04 12:50:52;;;;;;;2.47;1.30;;;36.10;46.10;;;;;;5069383;28;20204;-67
2022/08/04 12:53:20;;;;;;;8.52;1.70;;;36.20;46.20;;;;;;5068495;28;20168;-67
2022/08/04 12:55:50;;;;;;;2.67;1.48;;;36.20;47.40;;;;;;5064885;28;20618;-67
2022/08/04 12:58:19;;;;;;;4.30;1.80;;;36.40;45.80;;;;;;5076878;28;20204;-67
2022/08/04 13:00:55;;;;;;;3.40;1.60;;;36.60;45.20;;;;;;5080947;28;20204;-67
2022/08/04 13:03:26;;;;;;;5.78;1.48;;;36.40;45.80;;;;;;5093622;28;20251;-67
2022/08/04 13:05:55;;;;;;;3.38;1.70;;;36.10;48.00;;;;;;5093600;28;20297;-67
2022/08/04 13:08:22;;;;;;;2.70;1.48;;;36.30;47.80;;;;;;5084142;28;20188;-67
2022/08/04 13:10:52;;;;;;;4.00;1.40;;;36.30;45.80;;;;;;5084366;28;20175;-67
2022/08/04 13:13:20;;;;;;;5.10;1.40;;;35.90;46.80;;;;;;5088693;28;20902;-67
2022/08/04 13:16:04;;;;;;;4.38;1.73;;;35.70;46.50;;;;;;5093097;28;20657;-67
2022/08/04 13:18:33;;;;;;;2.45;1.42;;;35.50;47.90;;;;;;5091199;28;20182;-67
2022/08/04 13:21:17;;;;;;;4.78;2.17;;;36.00;45.80;;;;;;5092089;28;20831;-67
2022/08/04 13:23:45;;;;;;;4.72;1.63;;;36.10;45.80;;;;;;5053327;28;20216;-67
2022/08/04 13:26:14;;;;;;;2.53;1.38;;;36.40;45.40;;;;;;5086696;28;20280;-67
2022/08/04 13:28:46;;;;;;;2.22;1.27;;;36.30;45.20;;;;;;5071913;28;20552;-67
2022/08/04 13:31:26;;;;;;;4.40;1.70;;;36.30;45.70;;;;;;5061018;28;20663;-67